Time;durP1;ratioP1;P1;durP2;ratioP2;P2;SDS_P1;SDS_P2;PMS_P1;PMS_P2;Temp;Humidity;BMP_temperature;BMP_pressure;BME280_temperature;BME280_humidity;BME280_pressure;Samples;Min_cycle;Max_cycle;Signal;HPM_P1;HPM_P2
2023/06/28 00:04:06;;;;;;;;;;;15.30;99.90;;;;;;21163516;28;19916;-75
2023/06/28 00:14:06;;;;;;;;;;;14.90;99.90;;;;;;21162466;28;19912;-75
2023/06/28 00:24:07;;;;;;;;;;;14.80;99.90;;;;;;21143927;28;19950;-75
2023/06/28 00:34:08;;;;;;;;;;;14.70;99.90;;;;;;21161348;28;19961;-75
2023/06/28 00:44:08;;;;;;;;;;;14.60;99.90;;;;;;21150187;28;19964;-75
2023/06/28 00:54:09;;;;;;;;;;;14.90;99.90;;;;;;21180610;27;19911;-75
2023/06/28 01:04:13;;;;;;;;;;;14.90;99.90;;;;;;21225427;27;19923;-75
2023/06/28 01:14:14;;;;;;;;;;;14.80;99.90;;;;;;21179890;27;19966;-75
2023/06/28 01:24:15;;;;;;;;;;;14.50;99.90;;;;;;21139970;28;19941;-75
2023/06/28 01:34:16;;;;;;;;;;;14.30;99.90;;;;;;21139469;28;20369;-75
2023/06/28 01:44:17;;;;;;;;;;;14.10;99.90;;;;;;21156491;28;19916;-75
2023/06/28 01:54:18;;;;;;;;;;;13.80;99.90;;;;;;21138602;28;19988;-74
2023/06/28 02:04:20;;;;;;;;;;;13.50;99.90;;;;;;21164179;28;19923;-75
2023/06/28 02:14:20;;;;;;;;;;;13.40;99.90;;;;;;21163493;28;20377;-75
2023/06/28 02:24:21;;;;;;;;;;;13.40;99.90;;;;;;21153594;28;20348;-75
2023/06/28 02:34:22;;;;;;;;;;;13.30;99.90;;;;;;21167951;28;19916;-75
2023/06/28 02:44:25;;;;;;;;;;;13.20;99.90;;;;;;21128235;28;19916;-75
2023/06/28 02:54:27;;;;;;;;;;;13.20;99.90;;;;;;21134264;28;20385;-75
2023/06/28 03:04:27;;;;;;;;;;;13.00;99.90;;;;;;21164598;28;19916;-75
2023/06/28 03:14:30;;;;;;;;;;;13.00;99.90;;;;;;21147100;28;19964;-75
2023/06/28 03:24:30;;;;;;;;;;;12.80;99.90;;;;;;21139352;28;20010;-75
2023/06/28 03:34:31;;;;;;;;;;;12.70;99.90;;;;;;21135995;28;20262;-76
2023/06/28 03:44:33;;;;;;;;;;;12.90;99.90;;;;;;21125462;28;20638;-75
2023/06/28 03:54:33;;;;;;;;;;;13.10;99.90;;;;;;21139652;27;19965;-76
2023/06/28 04:04:35;;;;;;;;;;;13.10;99.90;;;;;;21137178;27;20386;-76
2023/06/28 04:14:35;;;;;;;;;;;13.30;99.90;;;;;;21158392;28;19911;-76
2023/06/28 04:24:36;;;;;;;;;;;13.50;99.90;;;;;;21159845;28;19915;-76
2023/06/28 04:34:36;;;;;;;;;;;13.50;99.90;;;;;;21157883;28;19918;-76
2023/06/28 04:44:41;;;;;;;;;;;13.60;99.90;;;;;;21168527;27;19915;-76
2023/06/28 04:54:42;;;;;;;;;;;13.60;99.90;;;;;;21216813;27;20421;-76
2023/06/28 05:04:42;;;;;;;;;;;13.80;99.90;;;;;;21232654;27;20002;-76
2023/06/28 05:14:43;;;;;;;;;;;13.90;99.90;;;;;;21198228;27;19959;-76
2023/06/28 05:24:44;;;;;;;;;;;14.00;99.90;;;;;;21144390;28;19916;-76
2023/06/28 05:34:44;;;;;;;;;;;14.60;99.90;;;;;;21158686;28;19955;-76
2023/06/28 05:44:45;;;;;;;;;;;15.00;99.90;;;;;;21151105;28;20003;-76
2023/06/28 05:54:46;;;;;;;;;;;15.30;99.90;;;;;;21149788;28;20404;-76
2023/06/28 06:04:46;;;;;;;;;;;15.50;99.90;;;;;;21141756;28;19916;-76
2023/06/28 06:14:50;;;;;;;;;;;15.30;99.90;;;;;;21132589;28;19958;-76
2023/06/28 06:24:50;;;;;;;;;;;15.30;99.90;;;;;;21135802;28;19977;-76
2023/06/28 06:34:51;;;;;;;;;;;15.30;99.90;;;;;;21129865;28;19916;-76
2023/06/28 06:44:52;;;;;;;;;;;15.80;99.90;;;;;;21151532;28;19916;-76
2023/06/28 06:54:52;;;;;;;;;;;16.30;99.90;;;;;;21146106;28;19919;-76
2023/06/28 07:04:53;;;;;;;;;;;16.50;99.90;;;;;;21164799;28;20353;-76
2023/06/28 07:14:53;;;;;;;;;;;16.70;99.90;;;;;;21161240;28;19955;-76
2023/06/28 07:24:54;;;;;;;;;;;16.60;99.90;;;;;;21158164;28;19915;-75
2023/06/28 07:34:55;;;;;;;;;;;16.50;99.90;;;;;;21154477;28;20301;-76
2023/06/28 07:44:55;;;;;;;;;;;17.00;99.90;;;;;;21159356;28;19915;-76
2023/06/28 07:54:56;;;;;;;;;;;17.30;99.90;;;;;;21155683;28;19969;-75
2023/06/28 08:04:58;;;;;;;;;;;17.80;99.90;;;;;;21157426;28;20430;-76
2023/06/28 08:14:59;;;;;;;;;;;18.10;99.90;;;;;;21163370;28;19919;-75
2023/06/28 08:24:59;;;;;;;;;;;18.70;99.90;;;;;;21162513;28;20370;-76
2023/06/28 08:35:02;;;;;;;;;;;18.80;99.90;;;;;;21162459;28;19911;-76
2023/06/28 08:45:03;;;;;;;;;;;19.40;99.90;;;;;;21145643;28;19961;-76
2023/06/28 08:55:04;;;;;;;;;;;19.80;99.90;;;;;;21157028;28;19956;-76
2023/06/28 09:05:06;;;;;;;;;;;20.50;99.90;;;;;;21159659;28;19941;-76
2023/06/28 09:15:07;;;;;;;;;;;21.50;99.90;;;;;;21158362;28;19912;-75
2023/06/28 09:25:08;;;;;;;;;;;22.70;99.90;;;;;;21159099;28;20152;-74
2023/06/28 09:35:10;;;;;;;;;;;23.70;99.90;;;;;;21155667;28;19957;-75
2023/06/28 09:45:22;;;;;;;;;;;24.40;99.90;;;;;;21153085;28;20255;-76
2023/06/28 09:55:24;;;;;;;;;;;23.10;99.90;;;;;;21157489;28;19994;-76
2023/06/28 10:05:25;;;;;;;;;;;23.70;99.90;;;;;;21144358;28;19922;-76
2023/06/28 10:15:29;;;;;;;;;;;24.40;99.70;;;;;;21156480;28;19912;-76
2023/06/28 10:25:30;;;;;;;;;;;25.00;97.60;;;;;;21157191;28;20323;-76
2023/06/28 10:35:30;;;;;;;;;;;26.60;94.60;;;;;;21171770;28;19915;-76
2023/06/28 10:45:37;;;;;;;;;;;26.10;92.90;;;;;;21171112;28;20014;-76
2023/06/28 10:55:57;;;;;;;;;;;24.00;94.60;;;;;;21152341;28;20289;-76
2023/06/28 11:05:58;;;;;;;;;;;24.10;97.70;;;;;;21169524;28;20324;-76
2023/06/28 11:16:07;;;;;;;;;;;24.60;95.60;;;;;;21150341;28;19976;-76
2023/06/28 11:26:12;;;;;;;;;;;24.60;94.60;;;;;;21134121;28;20366;-77
2023/06/28 11:36:13;;;;;;;;;;;24.60;96.00;;;;;;21147139;28;19915;-77
2023/06/28 11:46:21;;;;;;;;;;;25.30;95.00;;;;;;21166300;28;19916;-76
2023/06/28 11:56:38;;;;;;;;;;;25.80;94.50;;;;;;21165493;28;19922;-76
2023/06/28 12:06:41;;;;;;;;;;;26.60;94.10;;;;;;21158452;28;19915;-77
2023/06/28 12:16:42;;;;;;;;;;;25.80;93.30;;;;;;21146810;28;19916;-76
2023/06/28 12:26:44;;;;;;;;;;;26.30;93.30;;;;;;21163131;28;19934;-76
2023/06/28 12:36:48;;;;;;;;;;;26.30;93.70;;;;;;21162379;28;19912;-75
2023/06/28 12:46:49;;;;;;;;;;;27.90;92.90;;;;;;21161347;28;19916;-76
2023/06/28 12:56:50;;;;;;;;;;;27.20;93.70;;;;;;21160732;28;19953;-76
2023/06/28 13:06:50;;;;;;;;;;;27.30;92.40;;;;;;21173222;27;20285;-76
2023/06/28 13:16:51;;;;;;;;;;;28.00;92.50;;;;;;21176755;27;19911;-76
2023/06/28 13:26:56;;;;;;;;;;;28.10;91.90;;;;;;21160170;27;20425;-76
2023/06/28 13:36:56;;;;;;;;;;;27.20;91.90;;;;;;21073593;28;19912;-76
2023/06/28 13:46:57;;;;;;;;;;;27.70;93.90;;;;;;21166274;27;19915;-75
2023/06/28 13:56:57;;;;;;;;;;;28.20;92.70;;;;;;21250639;27;20401;-76
2023/06/28 14:06:58;;;;;;;;;;;29.30;91.30;;;;;;21259133;27;19960;-76
2023/06/28 14:16:59;;;;;;;;;;;28.60;91.50;;;;;;21172026;28;19947;-76
2023/06/28 14:27:00;;;;;;;;;;;29.40;91.40;;;;;;21172228;28;20427;-76
2023/06/28 14:37:00;;;;;;;;;;;29.00;89.50;;;;;;21171612;28;19912;-75
2023/06/28 14:47:03;;;;;;;;;;;27.30;91.00;;;;;;21170983;28;20329;-76
2023/06/28 14:57:04;;;;;;;;;;;27.70;91.60;;;;;;21151423;28;19912;-76
2023/06/28 15:07:04;;;;;;;;;;;28.10;90.40;;;;;;21167636;28;20285;-76
2023/06/28 15:17:05;;;;;;;;;;;27.90;90.70;;;;;;21152316;28;20381;-76
2023/06/28 15:27:06;;;;;;;;;;;28.70;92.00;;;;;;21155749;28;19920;-75
2023/06/28 15:37:07;;;;;;;;;;;28.30;91.30;;;;;;21172886;27;19911;-76
2023/06/28 15:47:07;;;;;;;;;;;28.20;91.00;;;;;;21202950;27;19923;-75
2023/06/28 15:57:08;;;;;;;;;;;27.80;92.20;;;;;;21185443;27;19955;-76
2023/06/28 16:07:09;;;;;;;;;;;28.00;93.60;;;;;;21136516;28;19916;-76
2023/06/28 16:17:09;;;;;;;;;;;27.90;93.70;;;;;;21131904;28;20006;-76
2023/06/28 16:27:10;;;;;;;;;;;27.80;92.10;;;;;;21144043;27;19973;-76
2023/06/28 16:37:11;;;;;;;;;;;27.40;93.20;;;;;;21151432;28;19921;-75
2023/06/28 16:47:11;;;;;;;;;;;26.70;94.50;;;;;;21123644;28;20370;-76
2023/06/28 16:57:12;;;;;;;;;;;26.60;93.80;;;;;;21148879;27;20235;-76
2023/06/28 17:07:13;;;;;;;;;;;26.90;94.40;;;;;;21148533;28;20011;-76
2023/06/28 17:17:13;;;;;;;;;;;26.60;95.40;;;;;;21149768;28;19992;-76
2023/06/28 17:27:15;;;;;;;;;;;26.20;95.70;;;;;;21146501;28;20000;-76
2023/06/28 17:37:16;;;;;;;;;;;26.00;96.00;;;;;;21150551;28;19919;-76
2023/06/28 17:47:16;;;;;;;;;;;25.80;96.20;;;;;;21157102;28;19955;-76
2023/06/28 17:57:17;;;;;;;;;;;25.30;96.70;;;;;;21157809;28;19912;-78
2023/06/28 18:07:18;;;;;;;;;;;25.90;98.90;;;;;;21139595;28;19923;-78
2023/06/28 18:17:18;;;;;;;;;;;26.90;96.10;;;;;;21157726;28;19919;-78
2023/06/28 18:27:19;;;;;;;;;;;26.80;98.30;;;;;;21173670;27;19947;-77
2023/06/28 18:37:20;;;;;;;;;;;26.00;99.90;;;;;;21184266;28;20006;-78
2023/06/28 18:47:20;;;;;;;;;;;25.70;99.90;;;;;;21165435;28;19969;-77
2023/06/28 18:57:21;;;;;;;;;;;23.50;99.90;;;;;;21170058;28;20356;-77
2023/06/28 19:07:22;;;;;;;;;;;22.90;99.90;;;;;;21201480;27;20510;-77
2023/06/28 19:17:22;;;;;;;;;;;22.60;99.90;;;;;;21192540;27;19976;-77
2023/06/28 19:27:23;;;;;;;;;;;21.50;99.90;;;;;;21201847;27;19916;-78
2023/06/28 19:37:24;;;;;;;;;;;20.80;99.90;;;;;;21198658;27;19917;-77
2023/06/28 19:47:24;;;;;;;;;;;20.70;99.90;;;;;;21211285;27;19916;-77
2023/06/28 19:57:25;;;;;;;;;;;20.90;99.90;;;;;;21168317;27;20290;-75
2023/06/28 20:07:27;;;;;;;;;;;20.90;99.90;;;;;;21176240;27;19923;-75
2023/06/28 20:17:28;;;;;;;;;;;20.20;99.90;;;;;;21181241;27;19920;-75
2023/06/28 20:27:29;;;;;;;;;;;19.90;99.90;;;;;;21189115;27;20390;-75
2023/06/28 20:37:30;;;;;;;;;;;19.70;99.90;;;;;;21160953;28;19912;-76
2023/06/28 20:47:32;;;;;;;;;;;19.20;99.90;;;;;;21141894;28;19922;-76
2023/06/28 20:57:33;;;;;;;;;;;19.20;99.90;;;;;;21146061;28;19916;-75
2023/06/28 21:07:33;;;;;;;;;;;19.40;99.90;;;;;;21158461;28;20390;-76
2023/06/28 21:17:34;;;;;;;;;;;19.00;99.90;;;;;;21183914;27;19920;-75
2023/06/28 21:27:34;;;;;;;;;;;18.90;99.90;;;;;;21203246;27;19955;-75
2023/06/28 21:37:35;;;;;;;;;;;18.60;99.90;;;;;;21158353;28;19943;-75
2023/06/28 21:47:36;;;;;;;;;;;18.60;99.90;;;;;;21157625;28;19916;-75
2023/06/28 21:57:42;;;;;;;;;;;18.50;99.90;;;;;;21157369;28;19915;-75
2023/06/28 22:07:43;;;;;;;;;;;18.60;99.90;;;;;;21121674;28;20370;-75
2023/06/28 22:17:44;;;;;;;;;;;18.20;99.90;;;;;;21163355;28;19916;-75
2023/06/28 22:27:45;;;;;;;;;;;18.10;99.90;;;;;;21164421;28;20012;-75
2023/06/28 22:37:46;;;;;;;;;;;18.00;99.90;;;;;;21171639;28;20271;-75
2023/06/28 22:47:47;;;;;;;;;;;18.10;99.90;;;;;;21171173;28;20511;-75
2023/06/28 22:57:48;;;;;;;;;;;17.70;99.90;;;;;;21170577;28;19954;-75
2023/06/28 23:07:48;;;;;;;;;;;17.60;99.90;;;;;;21163345;28;19950;-75
2023/06/28 23:17:49;;;;;;;;;;;17.60;99.90;;;;;;21157353;28;19912;-75
2023/06/28 23:27:50;;;;;;;;;;;17.60;99.90;;;;;;21166817;28;19915;-75
2023/06/28 23:37:51;;;;;;;;;;;17.50;99.90;;;;;;21149361;28;19919;-75
2023/06/28 23:47:51;;;;;;;;;;;17.40;99.90;;;;;;21166521;28;20410;-75
2023/06/28 23:57:52;;;;;;;;;;;17.30;99.90;;;;;;21165705;28;19916;-76
